createdAt,value
2023-11-16T00:00:18.017Z,9.57
2023-11-16T00:02:45.253Z,9.59
2023-11-16T00:05:14.885Z,9.62
2023-11-16T00:07:49.405Z,9.66
2023-11-16T00:10:17.882Z,9.70
2023-11-16T00:12:44.860Z,9.75
2023-11-16T00:15:13.296Z,9.77
2023-11-16T00:17:40.533Z,9.79
2023-11-16T00:20:08.850Z,9.79
2023-11-16T00:22:35.617Z,9.79
2023-11-16T00:25:07.435Z,9.81
2023-11-16T00:27:35.379Z,9.84
2023-11-16T00:30:05.020Z,9.87
2023-11-16T00:32:33.650Z,9.89
2023-11-16T00:35:01.280Z,9.95
2023-11-16T00:37:28.393Z,10.03
2023-11-16T00:39:59.352Z,10.07
2023-11-16T00:42:26.271Z,10.12
2023-11-16T00:44:53.757Z,10.18
2023-11-16T00:47:20.774Z,10.27
2023-11-16T00:49:47.967Z,10.35
2023-11-16T00:52:15.555Z,10.41
2023-11-16T00:54:42.542Z,10.46
2023-11-16T00:57:10.727Z,10.52
2023-11-16T00:59:38.188Z,10.58
2023-11-16T01:02:06.338Z,10.64
2023-11-16T01:04:35.329Z,10.70
2023-11-16T01:07:02.068Z,10.76
2023-11-16T01:09:37.011Z,10.80
2023-11-16T01:12:05.296Z,10.82
2023-11-16T01:14:32.186Z,10.82
2023-11-16T01:17:05.018Z,10.84
2023-11-16T01:19:33.646Z,10.87
2023-11-16T01:22:02.010Z,10.90
2023-11-16T01:24:36.348Z,10.94
2023-11-16T01:27:16.761Z,10.97
2023-11-16T01:29:45.438Z,11.00
2023-11-16T01:32:13.842Z,11.01
2023-11-16T01:34:43.698Z,11.02
2023-11-16T01:37:11.392Z,11.02
2023-11-16T01:39:42.218Z,11.01
2023-11-16T01:42:11.213Z,11.02
2023-11-16T01:44:40.252Z,11.02
2023-11-16T01:47:10.365Z,11.02
2023-11-16T01:49:39.350Z,11.03
2023-11-16T01:52:07.342Z,11.04
2023-11-16T01:54:38.308Z,11.06
2023-11-16T01:57:05.943Z,11.08
2023-11-16T01:59:35.710Z,11.09
2023-11-16T02:02:05.708Z,11.11
2023-11-16T02:04:36.261Z,11.12
2023-11-16T02:07:05.212Z,11.13
2023-11-16T02:09:32.159Z,11.15
2023-11-16T02:11:58.901Z,11.16
2023-11-16T02:14:25.592Z,11.17
2023-11-16T02:16:54.265Z,11.16
2023-11-16T02:19:32.072Z,11.16
2023-11-16T02:22:00.657Z,11.14
2023-11-16T02:24:28.890Z,11.10
2023-11-16T02:26:56.185Z,11.06
2023-11-16T02:29:23.131Z,11.02
2023-11-16T02:31:49.882Z,10.99
2023-11-16T02:34:16.787Z,10.99
2023-11-16T02:36:43.833Z,10.98
2023-11-16T02:39:14.789Z,10.96
2023-11-16T02:41:42.568Z,10.92
2023-11-16T02:44:10.343Z,10.86
2023-11-16T02:46:37.175Z,10.82
2023-11-16T02:49:04.127Z,10.78
2023-11-16T02:51:32.812Z,10.74
2023-11-16T02:54:03.753Z,10.71
2023-11-16T02:56:30.916Z,10.67
2023-11-16T02:58:57.665Z,10.63
2023-11-16T03:01:25.031Z,10.57
2023-11-16T03:03:52.022Z,10.52
2023-11-16T03:06:19.019Z,10.47
2023-11-16T03:08:46.510Z,10.42
2023-11-16T03:11:15.190Z,10.37
2023-11-16T03:13:42.610Z,10.31
2023-11-16T03:16:10.137Z,10.27
2023-11-16T03:18:37.065Z,10.23
2023-11-16T03:21:04.231Z,10.20
2023-11-16T03:23:30.948Z,10.18
2023-11-16T03:25:58.618Z,10.16
2023-11-16T03:28:25.490Z,10.13
2023-11-16T03:30:52.301Z,10.11
2023-11-16T03:33:19.404Z,10.11
2023-11-16T03:35:50.437Z,10.12
2023-11-16T03:38:20.446Z,10.12
2023-11-16T03:40:47.580Z,10.12
2023-11-16T03:43:15.216Z,10.13
2023-11-16T03:45:42.282Z,10.13
2023-11-16T03:48:10.617Z,10.12
2023-11-16T03:50:37.716Z,10.10
2023-11-16T03:53:04.686Z,10.05
2023-11-16T03:55:31.604Z,9.99
2023-11-16T03:57:58.353Z,9.95
2023-11-16T04:00:27.219Z,9.93
2023-11-16T04:02:59.528Z,9.88
2023-11-16T04:05:31.819Z,9.81
2023-11-16T04:07:58.606Z,9.78
2023-11-16T04:10:26.185Z,9.75
2023-11-16T04:12:53.019Z,9.72
2023-11-16T04:15:20.011Z,9.71
2023-11-16T04:17:47.423Z,9.68
2023-11-16T04:20:15.791Z,9.64
2023-11-16T04:22:42.612Z,9.58
2023-11-16T04:25:20.545Z,9.54
2023-11-16T04:27:50.565Z,9.50
2023-11-16T04:30:19.636Z,9.48
2023-11-16T04:32:47.554Z,9.48
2023-11-16T04:35:16.556Z,9.47
2023-11-16T04:37:43.947Z,9.44
2023-11-16T04:40:11.866Z,9.39
2023-11-16T04:42:40.777Z,9.36
2023-11-16T04:45:08.578Z,9.31
2023-11-16T04:47:38.883Z,9.25
2023-11-16T04:50:07.828Z,9.20
2023-11-16T04:52:35.392Z,9.17
2023-11-16T04:55:02.303Z,9.14
2023-11-16T04:57:29.785Z,9.10
2023-11-16T04:59:57.353Z,9.06
2023-11-16T05:02:24.153Z,9.05
2023-11-16T05:04:52.592Z,9.02
2023-11-16T05:07:19.291Z,9.02
2023-11-16T05:09:47.200Z,9.01
2023-11-16T05:12:14.105Z,8.97
2023-11-16T05:14:40.844Z,8.93
2023-11-16T05:17:07.714Z,8.88
2023-11-16T05:19:34.865Z,8.83
2023-11-16T05:22:03.217Z,8.79
2023-11-16T05:24:30.932Z,8.75
2023-11-16T05:27:03.150Z,8.71
2023-11-16T05:29:31.229Z,8.67
2023-11-16T05:31:58.777Z,8.65
2023-11-16T05:34:29.136Z,8.59
2023-11-16T05:36:56.538Z,8.58
2023-11-16T05:39:24.735Z,8.60
2023-11-16T05:41:51.626Z,8.62
2023-11-16T05:44:20.006Z,8.66
2023-11-16T05:46:46.859Z,8.66
2023-11-16T05:49:16.275Z,8.65
2023-11-16T05:51:43.488Z,8.63
2023-11-16T05:54:11.540Z,8.62
2023-11-16T05:56:44.804Z,8.59
2023-11-16T05:59:12.170Z,8.53
2023-11-16T06:01:39.344Z,8.48
2023-11-16T06:04:08.168Z,8.44
2023-11-16T06:06:35.544Z,8.40
2023-11-16T06:09:07.047Z,8.35
2023-11-16T06:11:34.041Z,8.31
2023-11-16T06:14:01.614Z,8.30
2023-11-16T06:16:28.500Z,8.30
2023-11-16T06:18:55.427Z,8.31
2023-11-16T06:21:22.588Z,8.31
2023-11-16T06:23:49.434Z,8.29
2023-11-16T06:26:16.213Z,8.27
2023-11-16T06:28:43.130Z,8.26
2023-11-16T06:31:09.917Z,8.24
2023-11-16T06:33:36.744Z,8.23
2023-11-16T06:36:04.531Z,8.24
2023-11-16T06:38:31.702Z,8.27
2023-11-16T06:41:00.413Z,8.31
2023-11-16T06:43:27.728Z,8.36
2023-11-16T06:45:59.970Z,8.38
2023-11-16T06:48:28.429Z,8.39
2023-11-16T06:50:55.985Z,8.39
2023-11-16T06:53:26.485Z,8.35
2023-11-16T06:55:53.913Z,8.31
2023-11-16T06:58:24.112Z,8.30
2023-11-16T07:00:52.953Z,8.30
2023-11-16T07:03:20.930Z,8.34
2023-11-16T07:05:47.819Z,8.37
2023-11-16T07:08:15.990Z,8.40
2023-11-16T07:10:43.215Z,8.40
2023-11-16T07:13:16.046Z,8.40
2023-11-16T07:15:46.674Z,8.40
2023-11-16T07:18:14.410Z,8.43
2023-11-16T07:20:42.150Z,8.50
2023-11-16T07:23:10.261Z,8.61
2023-11-16T07:25:36.972Z,8.74
2023-11-16T07:28:05.804Z,8.82
2023-11-16T07:30:34.838Z,8.91
2023-11-16T07:33:04.745Z,9.00
2023-11-16T07:35:35.383Z,9.08
2023-11-16T07:38:03.486Z,9.16
2023-11-16T07:40:30.638Z,9.22
2023-11-16T07:42:58.442Z,9.24
2023-11-16T07:45:26.233Z,9.26
2023-11-16T07:47:53.622Z,9.29
2023-11-16T07:50:20.791Z,9.32
2023-11-16T07:52:49.086Z,9.36
2023-11-16T07:55:23.761Z,9.43
2023-11-16T07:57:51.908Z,9.50
2023-11-16T08:00:32.977Z,9.57
2023-11-16T08:03:19.540Z,9.64
2023-11-16T08:05:48.540Z,9.71
2023-11-16T08:08:16.581Z,9.77
2023-11-16T08:10:45.296Z,9.81
2023-11-16T08:13:13.467Z,9.85
2023-11-16T08:15:42.504Z,9.90
2023-11-16T08:18:11.187Z,9.95
2023-11-16T08:20:39.266Z,10.01
2023-11-16T08:23:07.074Z,10.07
2023-11-16T08:25:35.568Z,10.13
2023-11-16T08:28:03.056Z,10.22
2023-11-16T08:30:29.985Z,10.31
2023-11-16T08:32:56.772Z,10.41
2023-11-16T08:35:24.806Z,10.50
2023-11-16T08:37:55.389Z,10.59
2023-11-16T08:40:25.493Z,10.70
2023-11-16T08:42:53.311Z,10.81
2023-11-16T08:45:26.058Z,10.95
2023-11-16T08:47:54.448Z,11.11
2023-11-16T08:50:22.412Z,11.26
2023-11-16T08:52:50.436Z,11.36
2023-11-16T08:55:20.384Z,11.43
2023-11-16T08:57:49.009Z,11.49
2023-11-16T09:00:29.240Z,11.54
2023-11-16T09:03:01.133Z,11.59
2023-11-16T09:05:33.216Z,11.61
2023-11-16T09:08:02.601Z,11.65
2023-11-16T09:10:31.791Z,11.70
2023-11-16T09:13:00.374Z,11.77
2023-11-16T09:15:27.803Z,11.83
2023-11-16T09:17:56.248Z,11.89
2023-11-16T09:20:26.488Z,11.95
2023-11-16T09:22:56.544Z,12.00
2023-11-16T09:25:25.465Z,12.07
2023-11-16T09:27:56.158Z,12.13
2023-11-16T09:30:24.984Z,12.21
2023-11-16T09:32:54.139Z,12.29
2023-11-16T09:35:24.469Z,12.37
2023-11-16T09:37:53.511Z,12.46
2023-11-16T09:40:32.066Z,12.56
2023-11-16T09:42:59.965Z,12.63
2023-11-16T09:45:30.806Z,12.68
2023-11-16T09:48:01.145Z,12.74
2023-11-16T09:50:29.305Z,12.81
2023-11-16T09:52:58.046Z,12.85
2023-11-16T09:55:27.701Z,12.89
2023-11-16T09:57:57.090Z,12.95
2023-11-16T10:00:25.002Z,13.01
2023-11-16T10:02:57.421Z,13.06
2023-11-16T10:05:28.128Z,13.11
2023-11-16T10:07:58.099Z,13.16
2023-11-16T10:10:30.947Z,13.19
2023-11-16T10:12:58.065Z,13.22
2023-11-16T10:15:26.204Z,13.25
2023-11-16T10:17:53.686Z,13.25
2023-11-16T10:20:22.109Z,13.25
2023-11-16T10:22:49.813Z,13.26
2023-11-16T10:25:17.289Z,13.26
2023-11-16T10:27:45.304Z,13.26
2023-11-16T10:30:16.698Z,13.27
2023-11-16T10:32:48.738Z,13.29
2023-11-16T10:35:19.389Z,13.34
2023-11-16T10:37:46.561Z,13.40
2023-11-16T10:40:14.060Z,13.49
2023-11-16T10:42:42.875Z,13.57
2023-11-16T10:45:10.885Z,13.62
2023-11-16T10:47:38.550Z,13.68
2023-11-16T10:50:06.016Z,13.75
2023-11-16T10:52:34.474Z,13.81
2023-11-16T10:55:08.843Z,13.87
2023-11-16T10:57:38.110Z,13.95
2023-11-16T11:00:06.062Z,14.01
2023-11-16T11:02:35.322Z,14.04
2023-11-16T11:05:11.172Z,14.07
2023-11-16T11:07:54.529Z,14.10
2023-11-16T11:10:34.689Z,14.12
2023-11-16T11:13:04.401Z,14.11
2023-11-16T11:15:32.844Z,14.09
2023-11-16T11:18:03.361Z,14.05
2023-11-16T11:20:33.924Z,14.03
2023-11-16T11:23:08.558Z,14.05
2023-11-16T11:25:40.110Z,14.08
2023-11-16T11:28:08.172Z,14.14
2023-11-16T11:30:38.846Z,14.19
2023-11-16T11:33:15.650Z,14.24
2023-11-16T11:35:54.742Z,14.28
2023-11-16T11:38:28.817Z,14.36
2023-11-16T11:41:23.502Z,14.42
2023-11-16T11:43:50.262Z,14.50
2023-11-16T11:46:19.781Z,14.54
2023-11-16T11:48:48.111Z,14.57
2023-11-16T11:51:17.475Z,14.60
2023-11-16T11:53:49.477Z,14.62
2023-11-16T11:56:17.082Z,14.67
2023-11-16T11:58:44.322Z,14.68
2023-11-16T12:01:12.778Z,14.67
2023-11-16T12:03:51.440Z,14.70
2023-11-16T12:06:19.091Z,14.81
2023-11-16T12:08:47.794Z,14.91
2023-11-16T12:11:19.603Z,14.98
2023-11-16T12:13:46.906Z,15.07
2023-11-16T12:16:14.856Z,15.13
2023-11-16T12:18:49.360Z,15.16
2023-11-16T12:21:16.562Z,15.17
2023-11-16T12:23:51.158Z,15.19
2023-11-16T12:26:29.626Z,15.24
2023-11-16T12:28:57.051Z,15.28
2023-11-16T12:31:28.132Z,15.34
2023-11-16T12:33:58.236Z,15.38
2023-11-16T12:36:27.290Z,15.41
2023-11-16T12:38:54.589Z,15.45
2023-11-16T12:41:24.550Z,15.50
2023-11-16T12:43:52.261Z,15.57
2023-11-16T12:46:20.794Z,15.62
2023-11-16T12:48:47.948Z,15.61
2023-11-16T12:51:20.981Z,15.56
2023-11-16T12:53:48.576Z,15.49
2023-11-16T12:56:16.816Z,15.44
2023-11-16T12:58:44.515Z,15.40
2023-11-16T13:01:14.855Z,15.38
2023-11-16T13:03:49.687Z,15.32
2023-11-16T13:06:20.544Z,15.27
2023-11-16T13:08:48.516Z,15.25
2023-11-16T13:11:16.757Z,15.22
2023-11-16T13:13:43.985Z,15.18
2023-11-16T13:16:13.955Z,15.13
2023-11-16T13:18:41.024Z,15.07
2023-11-16T13:21:11.547Z,15.03
2023-11-16T13:23:48.631Z,15.00
2023-11-16T13:26:16.168Z,14.97
2023-11-16T13:28:43.303Z,14.95
2023-11-16T13:31:10.188Z,14.94
2023-11-16T13:33:36.969Z,14.93
2023-11-16T13:36:03.999Z,14.92
2023-11-16T13:38:34.105Z,14.91
2023-11-16T13:41:01.409Z,14.89
2023-11-16T13:43:28.138Z,14.88
2023-11-16T13:45:55.239Z,14.86
2023-11-16T13:48:22.151Z,14.84
2023-11-16T13:50:53.211Z,14.82
2023-11-16T13:53:20.528Z,14.79
2023-11-16T13:55:48.397Z,14.77
2023-11-16T13:58:15.425Z,14.76
2023-11-16T14:00:42.836Z,14.76
2023-11-16T14:03:13.704Z,14.74
2023-11-16T14:05:41.889Z,14.73
2023-11-16T14:08:08.716Z,14.71
2023-11-16T14:10:35.655Z,14.69
2023-11-16T14:13:02.630Z,14.66
2023-11-16T14:15:29.663Z,14.63
2023-11-16T14:17:56.519Z,14.61
2023-11-16T14:20:23.479Z,14.58
2023-11-16T14:22:51.436Z,14.54
2023-11-16T14:25:24.071Z,14.50
2023-11-16T14:27:54.394Z,14.45
2023-11-16T14:30:22.118Z,14.41
2023-11-16T14:32:48.922Z,14.37
2023-11-16T14:35:20.207Z,14.31
2023-11-16T14:37:49.251Z,14.26
2023-11-16T14:40:16.202Z,14.21
2023-11-16T14:42:43.256Z,14.17
2023-11-16T14:45:10.487Z,14.13
2023-11-16T14:47:40.292Z,14.10
2023-11-16T14:50:14.540Z,14.08
2023-11-16T14:52:43.406Z,14.04
2023-11-16T14:55:11.192Z,14.00
2023-11-16T14:57:41.456Z,13.97
2023-11-16T15:00:09.993Z,13.94
2023-11-16T15:02:37.668Z,13.90
2023-11-16T15:05:10.087Z,13.86
2023-11-16T15:07:40.244Z,13.84
2023-11-16T15:10:12.358Z,13.82
2023-11-16T15:12:41.160Z,13.77
2023-11-16T15:15:11.526Z,13.71
2023-11-16T15:17:41.630Z,13.67
2023-11-16T15:20:16.407Z,13.64
2023-11-16T15:22:54.294Z,13.61
2023-11-16T15:25:21.589Z,13.60
2023-11-16T15:27:48.935Z,13.59
2023-11-16T15:30:16.821Z,13.58
2023-11-16T15:32:46.795Z,13.57
2023-11-16T15:35:13.828Z,13.55
2023-11-16T15:37:40.752Z,13.49
2023-11-16T15:40:09.661Z,13.40
2023-11-16T15:42:36.760Z,13.34
2023-11-16T15:45:04.105Z,13.29
2023-11-16T15:47:32.710Z,13.26
2023-11-16T15:50:00.767Z,13.22
2023-11-16T15:52:27.442Z,13.19
2023-11-16T15:54:54.633Z,13.15
2023-11-16T15:57:26.699Z,13.12
2023-11-16T15:59:59.844Z,13.07
2023-11-16T16:02:31.506Z,13.05
2023-11-16T16:05:01.123Z,13.03
2023-11-16T16:07:29.028Z,13.01
2023-11-16T16:09:57.293Z,13.00
2023-11-16T16:12:24.937Z,12.96
2023-11-16T16:14:51.709Z,12.91
2023-11-16T16:17:18.506Z,12.87
2023-11-16T16:19:45.272Z,12.84
2023-11-16T16:22:16.174Z,12.81
2023-11-16T16:24:43.950Z,12.80
2023-11-16T16:27:11.834Z,12.79
2023-11-16T16:29:39.244Z,12.79
2023-11-16T16:32:10.016Z,12.79
2023-11-16T16:34:37.717Z,12.80
2023-11-16T16:37:07.842Z,12.80
2023-11-16T16:39:38.681Z,12.79
2023-11-16T16:42:06.415Z,12.77
2023-11-16T16:44:33.240Z,12.72
2023-11-16T16:47:00.052Z,12.70
2023-11-16T16:49:29.760Z,12.71
2023-11-16T16:51:59.368Z,12.71
2023-11-16T16:54:26.475Z,12.73
2023-11-16T16:56:53.570Z,12.74
2023-11-16T16:59:20.677Z,12.76
2023-11-16T17:01:48.181Z,12.80
2023-11-16T17:04:15.077Z,12.81
2023-11-16T17:06:41.924Z,12.76
2023-11-16T17:09:09.599Z,12.76
2023-11-16T17:11:36.306Z,12.78
2023-11-16T17:14:03.495Z,12.79
2023-11-16T17:16:31.194Z,12.82
2023-11-16T17:18:58.161Z,12.83
2023-11-16T17:21:25.533Z,12.81
2023-11-16T17:23:52.720Z,12.78
2023-11-16T17:26:21.062Z,12.76
2023-11-16T17:28:49.814Z,12.75
2023-11-16T17:31:18.783Z,12.76
2023-11-16T17:33:46.453Z,12.75
2023-11-16T17:36:13.433Z,12.73
2023-11-16T17:38:40.198Z,12.72
2023-11-16T17:41:08.231Z,12.71
2023-11-16T17:43:38.967Z,12.72
2023-11-16T17:46:07.571Z,12.72
2023-11-16T17:48:34.948Z,12.72
2023-11-16T17:51:03.840Z,12.69
2023-11-16T17:53:33.365Z,12.67
2023-11-16T17:56:01.529Z,12.62
2023-11-16T17:58:28.388Z,12.59
2023-11-16T18:00:55.236Z,12.58
2023-11-16T18:03:22.163Z,12.56
2023-11-16T18:05:49.108Z,12.55
2023-11-16T18:08:15.976Z,12.53
2023-11-16T18:10:45.528Z,12.48
2023-11-16T18:13:20.699Z,12.43
2023-11-16T18:15:49.490Z,12.39
2023-11-16T18:18:18.016Z,12.36
2023-11-16T18:20:45.229Z,12.33
2023-11-16T18:23:12.127Z,12.31
2023-11-16T18:25:41.577Z,12.29
2023-11-16T18:28:14.181Z,12.27
2023-11-16T18:30:46.611Z,12.26
2023-11-16T18:33:15.476Z,12.25
2023-11-16T18:35:42.814Z,12.24
2023-11-16T18:38:12.726Z,12.23
2023-11-16T18:40:41.261Z,12.22
2023-11-16T18:43:11.733Z,12.22
2023-11-16T18:45:39.266Z,12.24
2023-11-16T18:48:10.695Z,12.22
2023-11-16T18:50:39.090Z,12.20
2023-11-16T18:53:05.845Z,12.16
2023-11-16T18:55:33.064Z,12.11
2023-11-16T18:58:00.351Z,12.04
2023-11-16T19:00:27.647Z,11.95
2023-11-16T19:03:03.697Z,11.89
2023-11-16T19:05:30.522Z,11.83
2023-11-16T19:07:57.625Z,11.80
2023-11-16T19:10:24.446Z,11.80
2023-11-16T19:12:51.325Z,11.79
2023-11-16T19:15:18.059Z,11.78
2023-11-16T19:17:45.830Z,11.78
2023-11-16T19:20:19.257Z,11.77
2023-11-16T19:22:45.997Z,11.75
2023-11-16T19:25:15.950Z,11.74
2023-11-16T19:27:43.599Z,11.72
2023-11-16T19:30:15.473Z,11.70
2023-11-16T19:32:43.627Z,11.68
2023-11-16T19:35:10.386Z,11.66
2023-11-16T19:37:37.150Z,11.66
2023-11-16T19:40:04.430Z,11.66
2023-11-16T19:42:31.152Z,11.67
2023-11-16T19:44:57.966Z,11.64
2023-11-16T19:47:29.951Z,11.62
2023-11-16T19:50:11.284Z,11.63
2023-11-16T19:52:39.667Z,11.62
2023-11-16T19:55:08.233Z,11.58
2023-11-16T19:57:35.529Z,11.53
2023-11-16T20:00:04.786Z,11.54
2023-11-16T20:02:32.321Z,11.55
2023-11-16T20:05:00.673Z,11.56
2023-11-16T20:07:30.219Z,11.57
2023-11-16T20:09:58.196Z,11.57
2023-11-16T20:12:26.331Z,11.56
2023-11-16T20:14:57.214Z,11.55
2023-11-16T20:17:27.730Z,11.54
2023-11-16T20:19:57.010Z,11.53
2023-11-16T20:22:24.328Z,11.52
2023-11-16T20:24:53.939Z,11.51
2023-11-16T20:27:20.896Z,11.50
2023-11-16T20:29:47.690Z,11.49
2023-11-16T20:32:14.744Z,11.46
2023-11-16T20:34:42.011Z,11.45
2023-11-16T20:37:09.030Z,11.44
2023-11-16T20:39:35.840Z,11.41
2023-11-16T20:42:05.376Z,11.34
2023-11-16T20:44:33.664Z,11.30
2023-11-16T20:47:00.704Z,11.24
2023-11-16T20:49:28.187Z,11.17
2023-11-16T20:51:56.395Z,11.09
2023-11-16T20:54:23.566Z,11.04
2023-11-16T20:56:50.455Z,10.98
2023-11-16T20:59:18.791Z,10.95
2023-11-16T21:01:46.200Z,10.93
2023-11-16T21:04:13.238Z,10.89
2023-11-16T21:06:40.202Z,10.86
2023-11-16T21:09:10.991Z,10.83
2023-11-16T21:11:38.414Z,10.79
2023-11-16T21:14:08.278Z,10.76
2023-11-16T21:16:35.337Z,10.74
2023-11-16T21:19:02.186Z,10.73
2023-11-16T21:21:29.092Z,10.72
2023-11-16T21:23:56.001Z,10.73
2023-11-16T21:26:22.801Z,10.75
2023-11-16T21:28:49.694Z,10.74
2023-11-16T21:31:16.544Z,10.72
2023-11-16T21:33:43.421Z,10.70
2023-11-16T21:36:11.442Z,10.69
2023-11-16T21:38:38.575Z,10.64
2023-11-16T21:41:07.495Z,10.62
2023-11-16T21:43:34.620Z,10.61
2023-11-16T21:46:01.727Z,10.60
2023-11-16T21:48:29.459Z,10.59
2023-11-16T21:50:56.279Z,10.56
2023-11-16T21:53:23.792Z,10.54
2023-11-16T21:55:51.842Z,10.54
2023-11-16T21:58:18.725Z,10.55
2023-11-16T22:00:45.586Z,10.55
2023-11-16T22:03:12.458Z,10.56
2023-11-16T22:05:39.241Z,10.58
2023-11-16T22:08:06.417Z,10.61
2023-11-16T22:10:33.197Z,10.57
2023-11-16T22:13:00.055Z,10.54
2023-11-16T22:15:27.659Z,10.53
2023-11-16T22:17:54.554Z,10.54
2023-11-16T22:20:21.399Z,10.53
2023-11-16T22:22:50.080Z,10.52
2023-11-16T22:25:18.179Z,10.51
2023-11-16T22:27:47.421Z,10.49
2023-11-16T22:30:19.418Z,10.45
2023-11-16T22:32:47.050Z,10.41
2023-11-16T22:35:14.953Z,10.39
2023-11-16T22:37:43.295Z,10.37
2023-11-16T22:40:11.139Z,10.34
2023-11-16T22:42:39.382Z,10.33
2023-11-16T22:45:10.089Z,10.31
2023-11-16T22:47:45.190Z,10.28
2023-11-16T22:50:12.666Z,10.22
2023-11-16T22:52:40.099Z,10.19
2023-11-16T22:55:10.291Z,10.17
2023-11-16T22:57:38.687Z,10.15
2023-11-16T23:00:11.153Z,10.12
2023-11-16T23:02:40.156Z,10.10
2023-11-16T23:05:09.008Z,10.10
2023-11-16T23:07:38.150Z,10.09
2023-11-16T23:10:06.035Z,10.05
2023-11-16T23:12:32.944Z,10.02
2023-11-16T23:14:59.756Z,9.98
2023-11-16T23:17:27.784Z,9.94
2023-11-16T23:19:54.796Z,9.88
2023-11-16T23:22:22.376Z,9.79
2023-11-16T23:24:50.821Z,9.71
2023-11-16T23:27:18.543Z,9.65
2023-11-16T23:29:45.307Z,9.59
2023-11-16T23:32:12.874Z,9.57
2023-11-16T23:34:41.797Z,9.56
2023-11-16T23:37:12.021Z,9.53
2023-11-16T23:39:38.739Z,9.48
2023-11-16T23:42:06.020Z,9.44
2023-11-16T23:44:32.809Z,9.42
2023-11-16T23:47:01.335Z,9.41
2023-11-16T23:49:28.379Z,9.40
2023-11-16T23:51:55.190Z,9.37
2023-11-16T23:54:22.115Z,9.35
2023-11-16T23:56:48.989Z,9.33
2023-11-16T23:59:16.296Z,9.32
